Aviation Digital Data Service (ADDS)

Output produced by METARs form (0456 UTC 22 December 2014)
found at http://aviationweather.gov/adds/metars/
 
KAND 212340Z 2200/2224 06006KT P6SM OVC030 
     FM220300 07007KT 6SM -RA OVC017 
     TEMPO 2204/2207 5SM -RA BR BKN009 OVC014 
     FM220700 06008KT 5SM -RA OVC009 
     FM221500 06008KT P6SM OVC007